Time;durP1;ratioP1;P1;durP2;ratioP2;P2;SDS_P1;SDS_P2;PMS_P1;PMS_P2;Temp;Humidity;BMP_temperature;BMP_pressure;BME280_temperature;BME280_humidity;BME280_pressure;Samples;Min_cycle;Max_cycle;Signal;HPM_P1;HPM_P2
2022/05/21 00:00:09;;;;;;;;;11.00;10.50;;;;;13.32;74.36;101802.94;5031221;28;10295;-65
2022/05/21 00:02:36;;;;;;;;;11.00;9.25;;;;;13.31;74.32;101812.09;5046360;28;9768;-66
2022/05/21 00:05:04;;;;;;;;;4.75;2.50;;;;;13.31;74.67;101809.38;5050852;28;9734;-66
2022/05/21 00:07:30;;;;;;;;;6.00;5.00;;;;;13.32;74.58;101809.19;5033493;28;9732;-66
2022/05/21 00:09:57;;;;;;;;;6.50;6.50;;;;;13.34;74.56;101804.44;5030699;28;9676;-65
2022/05/21 00:12:24;;;;;;;;;4.00;3.50;;;;;13.35;74.35;101803.41;5030718;28;9760;-66
2022/05/21 00:14:53;;;;;;;;;5.00;4.00;;;;;13.36;74.51;101799.66;5030667;28;10227;-66
2022/05/21 00:17:20;;;;;;;;;6.00;3.50;;;;;13.39;74.46;101800.31;5030040;28;9524;-66
2022/05/21 00:19:47;;;;;;;;;4.50;2.50;;;;;13.41;74.41;101806.38;5030444;28;9597;-66
2022/05/21 00:22:13;;;;;;;;;4.25;4.25;;;;;13.42;74.42;101800.78;5045708;28;9495;-66
2022/05/21 00:24:40;;;;;;;;;3.50;3.50;;;;;13.43;74.03;101796.22;5047233;28;9494;-67
2022/05/21 00:27:07;;;;;;;;;3.75;3.75;;;;;13.45;74.06;101799.56;5050125;28;9505;-66
2022/05/21 00:29:34;;;;;;;;;4.75;3.25;;;;;13.37;73.77;101808.63;5048967;28;9523;-66
2022/05/21 00:32:02;;;;;;;;;2.75;2.75;;;;;13.36;74.20;101810.47;5028657;28;9374;-66
2022/05/21 00:34:30;;;;;;;;;2.75;2.25;;;;;13.42;74.34;101817.03;5030482;28;9508;-66
2022/05/21 00:36:56;;;;;;;;;4.75;3.00;;;;;13.43;73.95;101817.84;5029748;28;9442;-66
2022/05/21 00:39:23;;;;;;;;;4.00;2.50;;;;;13.38;74.00;101813.00;5030263;28;9515;-66
2022/05/21 00:41:50;;;;;;;;;2.00;2.00;;;;;13.33;73.96;101821.69;5030543;28;9524;-65
2022/05/21 00:44:16;;;;;;;;;2.67;2.67;;;;;13.37;73.88;101816.75;5030809;28;9366;-65
2022/05/21 00:46:44;;;;;;;;;2.67;2.00;;;;;13.43;73.96;101809.75;5047580;28;9447;-65
2022/05/21 00:49:20;;;;;;;;;3.25;3.25;;;;;13.40;73.61;101810.09;5029656;28;9346;-66
2022/05/21 00:52:07;;;;;;;;;4.00;1.50;;;;;13.42;73.88;101825.13;5030110;28;9501;-66
2022/05/21 00:54:41;;;;;;;;;3.00;3.00;;;;;13.46;73.80;101809.38;5030288;28;10167;-66
2022/05/21 00:57:14;;;;;;;;;4.00;4.00;;;;;13.46;73.63;101812.06;5029890;28;9425;-66
2022/05/21 00:59:51;;;;;;;;;4.00;2.75;;;;;13.39;73.80;101808.44;5030283;28;9456;-65
2022/05/21 01:02:22;;;;;;;;;7.33;2.00;;;;;13.39;73.65;101811.16;5063954;23;9418;-65
2022/05/21 01:04:50;;;;;;;;;3.50;3.50;;;;;13.36;73.85;101818.59;5048484;28;9369;-65
2022/05/21 01:07:17;;;;;;;;;2.00;2.00;;;;;13.39;73.93;101813.84;5049935;28;9445;-65
2022/05/21 01:09:52;;;;;;;;;3.50;3.50;;;;;13.39;73.97;101811.16;5050264;28;9368;-65
2022/05/21 01:12:21;;;;;;;;;9.00;5.25;;;;;13.35;74.02;101819.63;5048968;28;9434;-65
2022/05/21 01:14:50;;;;;;;;;6.00;6.00;;;;;13.32;73.88;101811.88;5031652;28;9583;-65
2022/05/21 01:17:21;;;;;;;;;4.00;3.50;;;;;13.39;74.21;101808.44;5028363;28;9529;-65
2022/05/21 01:20:09;;;;;;;;;5.50;4.25;;;;;13.41;73.94;101801.81;5030433;28;10225;-65
2022/05/21 01:22:41;;;;;;;;;2.50;2.00;;;;;13.39;74.13;101797.63;5030292;28;9514;-65
2022/05/21 01:25:08;;;;;;;;;4.00;4.00;;;;;13.38;74.10;101796.78;5030222;28;9452;-65
2022/05/21 01:27:35;;;;;;;;;6.00;5.00;;;;;13.37;73.99;101814.06;5030070;28;9602;-66
2022/05/21 01:30:04;;;;;;;;;7.00;4.25;;;;;13.30;74.36;101805.84;5025470;28;10372;-65
2022/05/21 01:32:31;;;;;;;;;5.50;3.00;;;;;13.31;74.43;101798.56;5010471;28;9716;-65
2022/05/21 01:34:58;;;;;;;;;6.00;4.00;;;;;13.31;74.38;101799.41;5010477;28;9460;-66
2022/05/21 01:37:25;;;;;;;;;6.00;3.00;;;;;13.34;74.43;101801.72;5025050;28;9440;-65
2022/05/21 01:39:51;;;;;;;;;3.00;3.00;;;;;13.29;74.55;101790.66;5010491;28;9434;-66
2022/05/21 01:42:18;;;;;;;;;3.75;3.75;;;;;13.34;74.57;101793.63;5010705;28;9541;-66
2022/05/21 01:44:46;;;;;;;;;5.00;5.00;;;;;13.28;74.56;101783.53;5010561;28;9554;-66
2022/05/21 01:47:14;;;;;;;;;3.00;3.00;;;;;13.29;74.91;101782.53;5018455;28;9605;-66
2022/05/21 01:49:42;;;;;;;;;3.00;2.00;;;;;13.34;74.55;101796.31;5033842;28;9448;-66
2022/05/21 01:52:10;;;;;;;;;5.00;5.00;;;;;13.33;74.63;101797.38;5032736;28;10212;-66
2022/05/21 01:54:36;;;;;;;;;5.75;4.50;;;;;13.34;74.70;101795.50;5044830;28;9446;-65
2022/05/21 01:57:05;;;;;;;;;7.50;6.25;;;;;13.34;74.98;101790.91;5053539;28;9588;-66
2022/05/21 01:59:32;;;;;;;;;4.25;4.00;;;;;13.35;74.53;101799.88;5053653;28;10345;-65
2022/05/21 02:02:00;;;;;;;;;9.75;5.00;;;;;13.35;74.70;101797.16;5038519;28;9472;-66
2022/05/21 02:04:27;;;;;;;;;4.50;3.00;;;;;13.39;74.48;101803.03;5013821;28;9696;-65
2022/05/21 02:06:53;;;;;;;;;4.50;2.75;;;;;13.43;74.73;101801.63;5013670;28;9559;-65
2022/05/21 02:09:20;;;;;;;;;4.75;3.25;;;;;13.46;74.78;101806.66;5013907;28;9522;-65
2022/05/21 02:11:47;;;;;;;;;5.75;2.00;;;;;13.44;74.31;101800.59;5029114;28;10082;-65
2022/05/21 02:14:14;;;;;;;;;8.75;4.00;;;;;13.43;74.39;101813.28;5033430;28;9531;-65
2022/05/21 02:16:42;;;;;;;;;3.33;2.00;;;;;13.40;74.50;101797.41;5032339;28;9681;-65
2022/05/21 02:19:09;;;;;;;;;3.75;3.75;;;;;13.43;74.39;101804.34;5033419;28;9461;-66
2022/05/21 02:21:38;;;;;;;;;3.67;3.67;;;;;13.41;74.23;101800.97;5032304;28;9433;-66
2022/05/21 02:24:07;;;;;;;;;4.00;3.00;;;;;13.41;74.28;101803.66;5033311;28;9362;-66
2022/05/21 02:26:36;;;;;;;;;5.00;3.25;;;;;13.39;74.25;101803.03;5033154;28;9502;-65
2022/05/21 02:29:03;;;;;;;;;4.50;4.50;;;;;13.41;74.19;101795.56;5049322;28;9470;-66
2022/05/21 02:31:30;;;;;;;;;3.75;3.00;;;;;13.37;74.07;101805.94;5028087;28;9516;-65
2022/05/21 02:33:56;;;;;;;;;5.00;3.50;;;;;13.34;73.83;101804.44;5012016;28;9525;-65
2022/05/21 02:39:25;;;;;;;;;4.00;3.00;;;;;13.34;74.12;101814.41;5013310;28;9614;-65
2022/05/21 02:41:59;;;;;;;;;6.00;3.00;;;;;13.36;73.99;101818.59;5013116;28;9451;-65
2022/05/21 02:44:28;;;;;;;;;3.00;3.00;;;;;13.32;74.28;101816.47;5020428;28;10296;-65
2022/05/21 02:46:55;;;;;;;;;4.25;3.00;;;;;13.35;74.37;101814.22;5032741;28;10219;-65
2022/05/21 02:49:22;;;;;;;;;4.00;2.00;;;;;13.34;73.88;101814.41;5031589;28;9614;-65
2022/05/21 02:51:49;;;;;;;;;3.25;2.75;;;;;13.35;73.95;101814.22;5031272;28;9616;-64
2022/05/21 02:54:15;;;;;;;;;4.50;3.00;;;;;13.35;73.73;101816.09;5032618;28;9689;-65
2022/05/21 02:56:48;;;;;;;;;7.75;4.50;;;;;13.32;74.04;101817.28;5032472;28;9465;-66
2022/05/21 02:59:16;;;;;;;;;4.33;3.00;;;;;13.31;74.14;101825.59;5031396;28;9602;-66
2022/05/21 03:01:43;;;;;;;;;4.00;2.33;;;;;13.34;74.04;101817.97;5040354;28;9379;-66
2022/05/21 03:04:10;;;;;;;;;3.67;3.00;;;;;13.33;73.84;101820.88;5052504;28;9481;-66
2022/05/21 03:06:37;;;;;;;;;6.50;4.00;;;;;13.35;73.70;101822.34;5052296;28;9359;-66
2022/05/21 03:11:50;;;;;;;;;2.25;1.50;;;;;13.30;74.04;101821.22;5052277;28;9442;-67
2022/05/21 03:14:16;;;;;;;;;2.00;2.00;;;;;13.30;73.98;101829.34;5052332;28;9419;-66
2022/05/21 03:16:43;;;;;;;;;2.00;2.00;;;;;13.31;73.82;101833.72;5039108;28;9348;-66
2022/05/21 03:19:09;;;;;;;;;1.00;1.00;;;;;13.33;73.74;101835.22;5043464;28;9309;-66
2022/05/21 03:21:36;;;;;;;;;2.00;1.00;;;;;13.32;73.73;101822.69;5052060;28;9377;-66
2022/05/21 03:24:03;;;;;;;;;2.25;2.00;;;;;13.32;73.82;101829.97;5023927;28;9290;-66
2022/05/21 03:26:30;;;;;;;;;3.67;3.00;;;;;13.29;73.52;101823.09;5012282;28;9401;-66
2022/05/21 03:28:56;;;;;;;;;2.00;2.00;;;;;13.30;73.60;101835.59;5012175;28;9380;-65
2022/05/21 03:31:23;;;;;;;;;1.75;0.75;;;;;13.31;73.63;101833.72;5027811;28;9502;-66
2022/05/21 03:33:50;;;;;;;;;3.25;1.00;;;;;13.33;73.43;101831.69;5029316;28;9444;-65
2022/05/21 03:36:16;;;;;;;;;2.50;2.50;;;;;13.30;73.46;101834.75;5012236;28;9463;-66
2022/05/21 03:38:43;;;;;;;;;2.25;1.50;;;;;13.28;73.42;101836.78;5016274;28;9524;-66
2022/05/21 03:41:09;;;;;;;;;1.25;1.25;;;;;13.27;73.15;101841.38;5011985;28;10232;-66
2022/05/21 03:43:37;;;;;;;;;8.00;4.25;;;;;13.26;73.31;101847.81;5012440;28;9429;-65
2022/05/21 03:46:04;;;;;;;;;2.50;2.25;;;;;13.26;73.29;101839.69;5012085;28;10243;-66
2022/05/21 03:48:31;;;;;;;;;2.25;2.00;;;;;13.23;73.25;101845.47;5016419;28;9528;-65
2022/05/21 03:50:58;;;;;;;;;2.00;2.00;;;;;13.23;73.23;101844.63;5031623;28;9516;-65
2022/05/21 03:53:25;;;;;;;;;1.00;1.00;;;;;13.24;73.26;101843.59;5051059;28;9365;-66
2022/05/21 03:55:53;;;;;;;;;3.00;3.00;;;;;13.23;73.24;101841.94;5051450;28;9579;-66
2022/05/21 03:58:20;;;;;;;;;3.25;2.00;;;;;13.22;73.10;101846.47;5051183;28;9501;-66
2022/05/21 04:00:46;;;;;;;;;3.75;2.00;;;;;13.23;73.05;101845.47;5051362;28;9590;-66
2022/05/21 04:03:13;;;;;;;;;4.50;4.50;;;;;13.21;73.11;101849.38;5045377;28;9542;-65
2022/05/21 04:05:39;;;;;;;;;3.75;1.75;;;;;13.22;73.09;101851.88;5023673;28;9650;-66
2022/05/21 04:08:06;;;;;;;;;1.75;1.50;;;;;13.25;73.02;101862.38;5025227;28;9603;-65
2022/05/21 04:10:33;;;;;;;;;2.25;2.25;;;;;13.27;72.93;101868.41;5050780;28;9465;-66
2022/05/21 04:12:59;;;;;;;;;6.75;2.00;;;;;13.26;72.54;101863.19;5049907;28;9592;-66
2022/05/21 04:15:26;;;;;;;;;5.50;2.25;;;;;13.23;72.76;101860.84;5051161;28;9604;-66
2022/05/21 04:17:53;;;;;;;;;2.50;2.25;;;;;13.22;72.79;101865.41;5040775;28;9603;-66
2022/05/21 04:20:23;;;;;;;;;4.00;2.00;;;;;13.26;72.79;101874.00;5031121;28;9591;-66
2022/05/21 04:22:50;;;;;;;;;3.25;1.00;;;;;13.29;72.79;101876.34;5027316;28;9530;-66
2022/05/21 04:25:17;;;;;;;;;1.67;1.00;;;;;13.29;72.37;101876.34;5024068;28;9459;-66
2022/05/21 04:27:44;;;;;;;;;4.00;4.00;;;;;13.30;72.60;101876.16;5030806;28;9445;-65
2022/05/21 04:30:17;;;;;;;;;4.00;2.25;;;;;13.31;72.46;101879.69;5024710;28;9615;-66
2022/05/21 04:32:45;;;;;;;;;2.00;1.50;;;;;13.31;72.27;101877.81;5023099;28;9435;-66
2022/05/21 04:35:15;;;;;;;;;3.67;3.00;;;;;13.30;72.08;101878.84;5030922;28;9543;-65
2022/05/21 04:37:44;;;;;;;;;1.50;1.50;;;;;13.31;72.20;101869.72;5030095;28;9386;-65
2022/05/21 04:40:18;;;;;;;;;3.00;3.00;;;;;13.32;72.29;101884.06;5031018;28;9360;-65
2022/05/21 04:42:44;;;;;;;;;9.33;3.67;;;;;13.32;71.88;101886.78;5029567;28;9657;-66
2022/05/21 04:45:13;;;;;;;;;1.00;1.00;;;;;13.32;71.94;101874.09;5030811;28;9360;-66
2022/05/21 04:47:39;;;;;;;;;3.33;2.67;;;;;13.34;71.73;101880.16;5029601;28;9359;-66
2022/05/21 04:50:07;;;;;;;;;3.50;3.00;;;;;13.32;71.48;101884.91;5030669;28;9559;-67
2022/05/21 04:52:37;;;;;;;;;1.67;1.67;;;;;13.36;71.61;101883.50;5029919;28;9509;-66
2022/05/21 04:55:08;;;;;;;;;1.00;1.00;;;;;13.41;71.24;101888.38;5029327;28;9303;-66
2022/05/21 04:57:34;;;;;;;;;2.33;2.33;;;;;13.41;71.03;101891.06;5027136;28;9448;-66
2022/05/21 05:00:01;;;;;;;;;1.25;1.25;;;;;13.38;71.16;101887.91;5027657;28;9407;-66
2022/05/21 05:02:27;;;;;;;;;2.00;2.00;;;;;13.40;71.01;101888.53;5028906;28;9467;-66
2022/05/21 05:04:54;;;;;;;;;1.00;0.00;;;;;13.41;70.99;101887.50;5048699;28;9376;-66
2022/05/21 05:07:22;;;;;;;;;1.67;1.33;;;;;13.42;70.65;101895.47;5033591;28;9298;-66
2022/05/21 05:09:49;;;;;;;;;1.75;1.75;;;;;13.43;70.79;101896.28;5029865;28;9347;-66
2022/05/21 05:12:16;;;;;;;;;1.33;1.33;;;;;13.46;70.82;101899.47;5029946;28;9362;-66
2022/05/21 05:14:43;;;;;;;;;2.00;1.00;;;;;13.48;70.37;101893.84;5030363;28;9406;-66
2022/05/21 05:17:13;;;;;;;;;2.67;2.67;;;;;13.50;70.63;101905.34;5028612;28;9383;-66
2022/05/21 05:19:40;;;;;;;;;3.00;1.00;;;;;13.48;70.30;101907.38;5030032;28;9305;-66
2022/05/21 05:22:09;;;;;;;;;1.00;1.00;;;;;13.47;70.08;101903.84;5030267;28;9451;-66
2022/05/21 05:24:39;;;;;;;;;3.00;2.33;;;;;13.51;70.15;101905.13;5034095;28;9333;-66
2022/05/21 05:27:06;;;;;;;;;0.33;0.33;;;;;13.55;69.87;101908.31;5033791;28;9501;-67
2022/05/21 05:29:33;;;;;;;;;1.33;1.33;;;;;13.53;69.73;101913.06;5033946;28;9310;-66
2022/05/21 05:31:59;;;;;;;;;1.33;1.00;;;;;13.61;69.66;101912.97;5029539;28;9468;-67
2022/05/21 05:34:26;;;;;;;;;2.00;1.00;;;;;13.73;69.75;101910.63;5014704;28;9441;-67
2022/05/21 05:36:53;;;;;;;;;5.67;4.00;;;;;13.88;69.29;101918.72;5032518;28;9370;-67
2022/05/21 05:39:19;;;;;;;;;2.33;1.33;;;;;13.97;68.78;101915.69;5029199;28;9289;-67
2022/05/21 05:41:46;;;;;;;;;1.33;1.00;;;;;14.06;68.38;101919.16;5013903;28;9295;-68
2022/05/21 05:44:12;;;;;;;;;2.00;2.00;;;;;14.17;67.97;101923.22;5029196;28;9257;-67
2022/05/21 05:46:39;;;;;;;;;2.33;2.00;;;;;14.24;67.77;101924.13;5013808;28;9053;-67
2022/05/21 05:49:06;;;;;;;;;3.00;2.67;;;;;14.33;66.95;101923.81;5013818;28;9299;-65
2022/05/21 05:51:32;;;;;;;;;2.00;2.00;;;;;14.49;66.75;101927.34;5016380;28;9021;-67
2022/05/21 05:53:59;;;;;;;;;4.33;1.00;;;;;14.63;66.42;101929.16;5033642;28;9212;-65
2022/05/21 05:56:32;;;;;;;;;1.00;1.00;;;;;14.72;66.01;101927.97;5032081;28;9308;-66
2022/05/21 06:01:44;;;;;;;;;2.00;2.00;;;;;14.84;65.68;101934.53;5032149;28;9141;-66
2022/05/21 06:04:10;;;;;;;;;3.33;1.00;;;;;14.88;65.78;101936.88;5032796;28;9061;-66
2022/05/21 06:06:37;;;;;;;;;3.00;1.67;;;;;14.93;65.49;101942.53;5033389;28;8997;-66
2022/05/21 06:09:04;;;;;;;;;1.33;1.00;;;;;14.95;65.30;101948.59;5029304;28;8925;-66
2022/05/21 06:11:37;;;;;;;;;1.00;1.00;;;;;14.91;65.13;101948.16;5013271;28;8992;-66
2022/05/21 06:14:04;;;;;;;;;1.00;1.00;;;;;14.93;65.28;101942.53;5013573;28;9175;-66
2022/05/21 06:16:31;;;;;;;;;4.00;4.00;;;;;14.96;65.42;101945.69;5013212;28;9008;-66
2022/05/21 06:18:57;;;;;;;;;2.33;1.00;;;;;14.95;65.31;101948.59;5025505;28;9911;-66
2022/05/21 06:21:24;;;;;;;;;3.33;3.33;;;;;14.91;65.05;101948.16;5032488;28;8997;-66
2022/05/21 06:23:53;;;;;;;;;4.33;2.00;;;;;14.91;65.22;101958.13;5025754;28;9241;-66
2022/05/21 06:26:20;;;;;;;;;7.00;4.67;;;;;14.84;65.33;101956.22;5033426;28;8986;-66
2022/05/21 06:28:48;;;;;;;;;2.33;2.00;;;;;14.84;65.33;101960.81;5032322;28;9060;-66
2022/05/21 06:31:15;;;;;;;;;6.00;2.00;;;;;14.83;65.11;101965.41;5032669;28;9084;-65
2022/05/21 06:33:41;;;;;;;;;5.67;4.33;;;;;14.77;64.88;101976.19;5034863;28;9236;-66
2022/05/21 06:36:18;;;;;;;;;1.67;1.67;;;;;14.75;65.32;101975.53;5052839;28;9074;-66
2022/05/21 06:38:45;;;;;;;;;3.00;3.00;;;;;14.75;65.47;101984.50;5031473;28;9099;-66
2022/05/21 06:41:11;;;;;;;;;3.00;2.33;;;;;14.73;65.79;101986.56;5026833;28;9890;-65
2022/05/21 06:43:38;;;;;;;;;1.00;1.00;;;;;14.75;65.84;101989.94;5012359;28;9064;-65
2022/05/21 06:46:05;;;;;;;;;4.33;2.33;;;;;14.75;65.62;101998.06;5012861;28;8977;-65
2022/05/21 06:48:31;;;;;;;;;5.67;1.00;;;;;14.77;65.81;102000.56;5030764;28;9154;-65
2022/05/21 06:51:05;;;;;;;;;3.33;1.00;;;;;14.78;65.75;101988.69;5032576;28;9182;-66
2022/05/21 06:53:37;;;;;;;;;1.00;1.00;;;;;14.76;65.63;101997.03;5036813;28;9300;-66
2022/05/21 06:56:14;;;;;;;;;2.00;1.00;;;;;14.75;65.34;102002.66;5032367;28;9217;-65
2022/05/21 06:58:42;;;;;;;;;1.00;1.00;;;;;14.72;65.51;102003.03;5032387;28;9148;-66
2022/05/21 07:01:09;;;;;;;;;2.67;2.00;;;;;14.73;65.60;102002.81;5031279;28;8989;-66
2022/05/21 07:03:35;;;;;;;;;4.33;2.00;;;;;14.78;65.45;102003.06;5087022;23;9104;-65
2022/05/21 07:08:50;;;;;;;;;1.00;1.00;;;;;14.80;65.45;102006.44;5070743;28;8987;-66
2022/05/21 07:11:17;;;;;;;;;1.00;1.00;;;;;14.86;65.84;102020.25;5071926;28;8974;-67
2022/05/21 07:13:44;;;;;;;;;1.67;1.67;;;;;14.91;66.00;102009.66;5071849;28;9096;-67
2022/05/21 07:16:11;;;;;;;;;5.33;1.67;;;;;14.91;65.57;102005.09;5062397;28;9976;-66
2022/05/21 07:18:37;;;;;;;;;2.50;2.50;;;;;14.90;65.77;102018.81;5051708;28;9051;-66
2022/05/21 07:21:04;;;;;;;;;2.00;2.00;;;;;14.89;65.49;102022.59;5066654;28;8840;-66
2022/05/21 07:23:31;;;;;;;;;4.00;3.00;;;;;14.92;64.89;102019.50;5051810;28;8979;-66
2022/05/21 07:25:57;;;;;;;;;3.33;2.00;;;;;14.94;64.94;102020.94;5051852;28;9218;-66
2022/05/21 07:28:24;;;;;;;;;4.33;3.67;;;;;15.00;64.71;102017.47;5066711;28;9089;-66
2022/05/21 07:30:52;;;;;;;;;1.67;1.67;;;;;15.04;64.80;102026.06;5058409;28;9178;-66
2022/05/21 07:33:20;;;;;;;;;2.00;2.00;;;;;15.02;65.08;102033.53;5071571;28;9364;-66
2022/05/21 07:35:47;;;;;;;;;1.00;0.67;;;;;15.05;64.56;102030.44;5064371;28;9044;-67
2022/05/21 07:38:16;;;;;;;;;1.00;1.00;;;;;15.14;64.82;102028.44;5051210;28;8993;-66
2022/05/21 07:40:45;;;;;;;;;2.00;2.00;;;;;15.09;64.57;102027.16;5051529;28;8963;-67
2022/05/21 07:43:20;;;;;;;;;2.00;2.00;;;;;15.08;64.54;102030.06;5051573;28;9139;-67
2022/05/21 07:45:48;;;;;;;;;1.00;1.00;;;;;15.06;64.66;102048.38;5063923;28;9141;-66
2022/05/21 07:48:17;;;;;;;;;1.67;1.67;;;;;15.08;64.45;102038.19;5071123;28;9731;-67
2022/05/21 07:50:49;;;;;;;;;3.00;3.00;;;;;15.13;64.54;102033.03;5056987;28;8986;-66
2022/05/21 07:53:31;;;;;;;;;2.00;1.00;;;;;15.15;64.54;102055.38;5050965;28;9054;-66
2022/05/21 07:55:59;;;;;;;;;3.67;2.00;;;;;15.18;63.82;102051.41;5050203;28;9837;-66
2022/05/21 07:58:28;;;;;;;;;0.67;0.67;;;;;15.25;64.40;102057.75;5051197;28;9150;-66
2022/05/21 08:00:55;;;;;;;;;2.00;2.00;;;;;15.26;64.56;102054.84;5059261;28;8984;-66
2022/05/21 08:03:24;;;;;;;;;3.00;1.00;;;;;15.31;64.56;102065.09;5051077;28;9053;-66
2022/05/21 08:05:51;;;;;;;;;2.00;1.00;;;;;15.34;64.17;102072.84;5051062;28;8960;-67
2022/05/21 08:08:18;;;;;;;;;1.00;1.00;;;;;15.35;63.90;102058.25;5048775;28;8967;-66
2022/05/21 08:10:45;;;;;;;;;3.00;1.00;;;;;15.42;63.52;102066.44;5050910;28;9049;-66
2022/05/21 08:13:14;;;;;;;;;3.33;3.33;;;;;15.47;63.99;102072.13;5051352;28;8981;-67
2022/05/21 08:15:42;;;;;;;;;2.25;0.75;;;;;15.52;63.41;102072.38;5049937;28;8987;-67
2022/05/21 08:18:08;;;;;;;;;7.67;2.00;;;;;15.48;63.37;102080.06;5066082;28;8826;-66
2022/05/21 08:20:37;;;;;;;;;2.00;2.00;;;;;15.48;63.69;102084.66;5050785;28;8908;-67
2022/05/21 08:28:34;;;;;;;;;1.25;1.25;;;;;15.41;63.31;102079.19;5053544;28;8918;-65
2022/05/21 08:31:03;;;;;;;;;2.00;1.00;;;;;15.51;62.60;102085.09;5050510;28;8838;-67
2022/05/21 08:33:32;;;;;;;;;1.33;1.00;;;;;15.63;62.64;102079.13;5050484;28;9603;-67
2022/05/21 08:35:59;;;;;;;;;3.00;2.00;;;;;15.71;62.13;102074.41;5050173;28;8960;-66
2022/05/21 08:38:26;;;;;;;;;4.33;1.67;;;;;15.76;62.54;102074.69;5050073;28;8826;-67
2022/05/21 08:41:03;;;;;;;;;2.00;2.00;;;;;15.78;61.87;102075.31;5050503;28;9718;-66
2022/05/21 08:43:58;;;;;;;;;2.75;2.75;;;;;15.81;61.71;102069.50;5055049;28;8838;-66
2022/05/21 08:46:56;;;;;;;;;1.00;0.33;;;;;15.83;61.70;102072.00;5050088;28;8818;-66
2022/05/21 08:49:41;;;;;;;;;1.00;1.00;;;;;15.80;60.87;102075.13;5050543;28;8891;-66
2022/05/21 08:52:11;;;;;;;;;1.75;1.75;;;;;15.77;60.86;102086.38;5049477;28;9013;-67
2022/05/21 08:54:43;;;;;;;;;0.50;0.50;;;;;15.75;61.14;102080.28;5050207;28;8871;-66
2022/05/21 08:57:35;;;;;;;;;2.33;1.67;;;;;15.74;60.61;102087.59;5048532;28;8850;-66
2022/05/21 09:00:12;;;;;;;;;1.67;1.00;;;;;15.72;61.33;102084.25;5049906;28;9699;-67
2022/05/21 09:02:40;;;;;;;;;1.67;1.67;;;;;15.69;61.28;102084.66;5049419;28;8902;-66
2022/05/21 09:05:10;;;;;;;;;1.00;1.00;;;;;15.77;61.34;102075.53;5049973;28;9014;-67
2022/05/21 09:07:50;;;;;;;;;2.33;1.33;;;;;15.89;61.34;102087.50;5050070;28;8883;-67
2022/05/21 09:10:32;;;;;;;;;0.75;0.75;;;;;15.94;61.31;102078.75;5048890;28;9621;-66
2022/05/21 09:13:10;;;;;;;;;1.00;1.00;;;;;16.05;61.02;102080.91;5049833;28;9539;-67
2022/05/21 09:18:23;;;;;;;;;1.00;1.00;;;;;16.16;60.23;102077.63;5048506;28;8913;-66
2022/05/21 09:21:08;;;;;;;;;2.00;2.00;;;;;16.25;60.06;102081.88;5058007;28;9009;-66
2022/05/21 09:23:50;;;;;;;;;1.00;1.00;;;;;16.28;60.33;102069.72;5068684;28;8819;-67
2022/05/21 09:26:20;;;;;;;;;1.00;1.00;;;;;16.30;59.50;102078.53;5069677;28;8972;-67
2022/05/21 09:28:49;;;;;;;;;1.00;1.00;;;;;16.28;59.07;102076.00;5069370;28;9610;-66
2022/05/21 09:31:31;;;;;;;;;3.00;2.00;;;;;16.21;59.26;102086.03;5050218;28;8895;-66
2022/05/21 09:34:24;;;;;;;;;2.00;2.00;;;;;16.24;59.21;102090.19;5048537;28;8833;-66
2022/05/21 09:36:51;;;;;;;;;2.33;2.33;;;;;16.24;59.50;102080.16;5049769;28;8923;-67
2022/05/21 09:39:38;;;;;;;;;3.00;1.33;;;;;16.27;59.39;102090.63;5054669;28;8980;-67
2022/05/21 09:45:22;;;;;;;;;3.00;1.00;;;;;16.34;59.30;102092.56;5085256;28;8922;-67
2022/05/21 09:45:26;;;;;;;;;1.00;1.00;;;;;16.33;59.47;102080.84;5064790;28;8815;-67
2022/05/21 09:48:14;;;;;;;;;1.00;1.00;;;;;16.41;59.55;102096.16;5068984;28;8803;-66
2022/05/21 09:50:47;;;;;;;;;2.25;2.25;;;;;16.40;59.26;102089.84;5052580;28;8845;-67
2022/05/21 09:53:36;;;;;;;;;3.67;2.33;;;;;16.34;59.10;102090.69;5046966;28;8911;-67
2022/05/21 09:56:19;;;;;;;;;2.33;1.33;;;;;16.34;59.94;102103.44;5069568;28;8900;-67
2022/05/21 09:58:49;;;;;;;;;4.00;2.00;;;;;16.25;59.60;102092.72;5068230;28;8891;-67
2022/05/21 10:01:36;;;;;;;;;4.33;3.00;;;;;16.30;59.71;102097.56;5049702;28;8978;-66
2022/05/21 10:04:12;;;;;;;;;2.50;2.50;;;;;16.38;59.76;102091.94;5052434;28;8950;-67
2022/05/21 10:06:45;;;;;;;;;3.00;2.00;;;;;16.41;60.09;102099.72;5061221;28;8818;-67
2022/05/21 10:12:37;;;;;;;;;1.00;1.00;;;;;16.32;59.25;102111.75;5073558;28;8877;-67
2022/05/21 10:15:21;;;;;;;;;1.00;1.00;;;;;16.30;59.68;102101.09;5059971;28;9611;-66
2022/05/21 10:18:11;;;;;;;;;8.67;4.00;;;;;16.28;60.20;102108.59;5052987;28;8833;-66
2022/05/21 10:20:44;;;;;;;;;2.50;1.00;;;;;16.27;59.62;102115.09;5063798;28;8912;-66
2022/05/21 10:23:35;;;;;;;;;2.25;1.00;;;;;16.24;59.12;102123.63;5052828;28;8818;-67
2022/05/21 10:26:26;;;;;;;;;3.50;2.50;;;;;16.29;59.85;102112.19;5072044;28;8815;-66
2022/05/21 10:29:01;;;;;;;;;5.00;3.00;;;;;16.31;59.58;102119.09;5070118;28;8861;-67
2022/05/21 10:31:50;;;;;;;;;1.25;1.25;;;;;16.39;59.35;102112.66;5048282;28;8982;-67
2022/05/21 10:34:48;;;;;;;;;3.00;3.00;;;;;16.46;59.90;102123.56;5047045;28;8857;-67
2022/05/21 10:37:14;;;;;;;;;5.33;2.67;;;;;16.44;59.31;102123.75;5045260;28;9073;-67
2022/05/21 10:39:44;;;;;;;;;2.67;2.67;;;;;16.51;59.51;102131.94;5052855;28;8978;-67
2022/05/21 10:42:34;;;;;;;;;2.00;1.75;;;;;16.53;59.28;102128.00;5052311;28;8971;-66
2022/05/21 10:45:40;;;;;;;;;1.75;1.75;;;;;16.51;59.23;102129.22;5069998;28;8826;-67
2022/05/21 10:48:20;;;;;;;;;2.75;2.75;;;;;16.57;59.44;102133.88;5045906;28;8923;-67
2022/05/21 10:51:05;;;;;;;;;4.33;2.67;;;;;16.62;58.87;102125.94;5051773;28;8825;-66
2022/05/21 10:53:44;;;;;;;;;5.00;2.33;;;;;16.63;59.16;102130.31;5070694;28;8929;-67
2022/05/21 10:56:36;;;;;;;;;3.00;2.00;;;;;16.65;59.25;102133.69;5072420;28;9714;-66
2022/05/21 10:59:06;;;;;;;;;7.67;5.33;;;;;16.69;59.63;102126.81;5032541;28;8993;-66
2022/05/21 11:01:44;;;;;;;;;2.67;2.67;;;;;16.68;59.19;102135.13;5036762;28;9172;-67
2022/05/21 11:04:42;;;;;;;;;2.33;1.33;;;;;16.72;59.22;102134.53;5072115;28;8890;-66
2022/05/21 11:07:14;;;;;;;;;4.75;2.00;;;;;16.71;58.72;102135.56;5046238;28;8987;-65
2022/05/21 11:10:04;;;;;;;;;3.25;3.25;;;;;16.61;58.57;102124.25;5072256;28;9745;-66
2022/05/21 11:13:02;;;;;;;;;6.33;5.33;;;;;16.48;58.82;102135.06;5061308;28;8914;-67
2022/05/21 11:15:39;;;;;;;;;4.00;3.00;;;;;16.55;59.03;102136.75;5051965;28;9071;-67
2022/05/21 11:18:13;;;;;;;;;1.25;1.00;;;;;16.63;59.53;102145.78;5066335;28;8815;-66
2022/05/21 11:21:05;;;;;;;;;2.00;2.00;;;;;16.66;59.04;102137.25;5052548;28;8830;-66
2022/05/21 11:24:09;;;;;;;;;2.75;2.00;;;;;16.64;58.66;102148.31;5066076;28;8827;-67
2022/05/21 11:26:39;;;;;;;;;1.50;1.50;;;;;16.70;58.65;102144.78;5067988;28;8847;-66
2022/05/21 11:29:13;;;;;;;;;6.33;1.00;;;;;16.86;58.66;102146.34;5051412;28;8931;-66
2022/05/21 11:37:52;;;;;;;;;3.00;3.00;;;;;17.03;58.32;102139.47;5051397;28;8841;-67
2022/05/21 11:46:48;;;;;;;;;3.25;2.50;;;;;17.30;57.65;102139.53;5067116;28;9564;-66
2022/05/21 11:49:26;;;;;;;;;3.50;2.00;;;;;17.28;57.27;102137.00;5049941;28;8833;-66
2022/05/21 11:51:54;;;;;;;;;2.75;2.75;;;;;17.39;57.16;102149.19;5055413;28;8920;-66
2022/05/21 11:54:47;;;;;;;;;5.00;3.00;;;;;17.47;56.50;102146.25;5069986;28;8807;-66
2022/05/21 11:57:28;;;;;;;;;1.00;1.00;;;;;17.58;56.93;102146.66;5062807;28;8821;-66
2022/05/21 11:59:55;;;;;;;;;2.00;2.00;;;;;17.60;56.19;102144.59;5051164;28;8940;-67
2022/05/21 12:02:34;;;;;;;;;2.00;2.00;;;;;17.61;56.23;102147.09;5059724;28;8819;-66
2022/05/21 12:05:08;;;;;;;;;2.50;2.00;;;;;17.57;55.68;102145.84;5067552;28;8850;-67
2022/05/21 12:07:42;;;;;;;;;2.50;2.50;;;;;17.59;55.22;102151.91;5060043;28;8958;-66
2022/05/21 12:10:10;;;;;;;;;3.50;1.75;;;;;17.67;55.47;102146.28;5070890;28;8831;-65
2022/05/21 12:12:59;;;;;;;;;3.50;2.00;;;;;17.66;55.37;102146.47;5059472;28;9575;-65
2022/05/21 12:15:46;;;;;;;;;4.00;3.25;;;;;17.68;54.55;102147.94;5049498;28;8852;-66
2022/05/21 12:18:41;;;;;;;;;1.75;1.75;;;;;17.71;54.97;102152.13;5066066;28;8893;-67
2022/05/21 12:21:50;;;;;;;;;2.00;2.00;;;;;17.64;54.57;102145.84;5061755;28;8862;-66
2022/05/21 12:24:40;;;;;;;;;3.00;1.25;;;;;17.59;54.90;102153.81;5030489;28;8840;-67
2022/05/21 12:27:21;;;;;;;;;1.50;1.50;;;;;17.60;55.41;102153.59;5045790;28;8815;-67
2022/05/21 12:29:52;;;;;;;;;2.75;1.00;;;;;17.51;54.36;102157.56;5070660;28;8847;-66